Date,TemperatureHighF,TemperatureAvgF,TemperatureLowF,DewpointHighF,DewpointAvgF,DewpointLowF,HumidityHigh,HumidityAvg,HumidityLow,PressureMaxIn,PressureMinIn,WindSpeedMaxMPH,WindSpeedAvgMPH,GustSpeedMaxMPH,PrecipitationSumIn
2013-2-1,31.1,16.1,-7.6,18.3,2.8,-21.9,62,55,47,30.22,29.90,14,4,17,0.01
2013-2-2,41.2,27.8,19.9,31.1,17.5,11.9,77,65,50,30.16,29.95,30,8,42,1.05
2013-2-3,36.0,23.9,13.6,22.2,13.3,2.8,70,63,55,30.17,29.78,13,3,20,0.00
2013-2-4,39.0,23.8,13.5,28.1,14.4,2.6,76,67,60,30.00,29.68,14,4,21,0.00
2013-2-5,40.5,32.8,21.9,28.3,21.7,14.0,72,63,51,29.98,29.69,12,5,19,0.00
2013-2-6,48.2,33.5,24.8,31.0,22.8,16.4,74,65,50,30.04,29.75,12,4,17,0.00
2013-2-7,30.7,26.9,23.7,21.8,18.8,16.4,74,71,67,30.17,30.04,7,3,11,0.00
2013-2-8,37.4,28.5,23.0,27.8,20.5,16.0,77,72,64,30.16,29.87,14,5,21,0.00
2013-2-9,28.6,26.9,25.3,21.4,19.8,18.5,77,74,69,29.89,29.74,16,5,19,0.00
2013-2-10,30.6,25.5,22.8,22.8,17.7,13.0,77,72,63,29.93,29.65,28,14,42,1.07
2013-2-11,31.6,24.0,19.0,16.1,12.8,7.9,68,62,51,30.06,29.91,24,7,31,0.00
2013-2-12,45.1,32.6,20.1,26.5,18.2,8.5,64,55,46,29.92,29.82,14,3,17,0.00
2013-2-13,46.2,37.5,26.6,31.4,25.8,17.5,72,62,52,29.83,29.61,20,5,30,0.01
2013-2-14,37.0,28.7,22.6,27.3,16.1,9.6,72,59,48,30.27,29.82,27,9,36,0.35
2013-2-15,27.1,22.6,17.6,16.8,10.8,5.8,72,60,48,30.34,30.14,17,5,22,0.00
2013-2-16,42.8,30.5,20.1,29.7,20.8,10.6,76,67,59,30.14,29.84,11,4,16,0.01
2013-2-17,50.9,36.0,27.0,35.4,26.1,19.0,77,67,51,29.84,29.47,16,5,27,0.01
2013-2-18,37.4,19.7,5.0,26.8,6.5,-8.6,70,56,48,30.21,29.61,28,16,38,0.63
2013-2-19,12.4,3.3,-4.0,-6.6,-13.1,-19.5,53,45,38,30.37,30.21,15,6,23,0.00
2013-2-20,16.2,6.0,-4.7,5.5,-9.6,-20.1,62,48,39,30.33,30.10,14,7,23,0.00
2013-2-21,20.5,17.1,14.7,7.6,5.5,3.6,66,60,52,30.16,30.07,13,5,21,0.00
2013-2-22,32.9,20.9,13.3,17.4,8.7,2.7,68,59,46,30.07,29.84,7,2,10,0.00
2013-2-23,39.6,23.9,12.6,23.4,12.2,2.8,66,61,50,29.85,29.71,8,4,15,0.00
2013-2-24,42.1,28.5,20.1,28.5,18.4,10.5,73,66,55,30.07,29.84,17,4,21,0.00
2013-2-25,47.1,30.1,16.0,26.5,15.7,6.7,70,56,26,30.08,29.90,14,3,19,0.00
2013-2-26,42.8,30.3,19.4,24.1,17.3,11.4,72,59,38,30.07,29.90,8,2,11,0.00
2013-2-27,33.1,31.0,27.7,25.0,21.7,16.8,74,68,58,30.24,30.06,18,9,26,0.00
2013-2-28,36.5,27.2,23.4,20.7,16.3,13.7,70,63,47,30.27,30.20,13,4,17,0.00